createdAt,value
2017-10-08T00:01:33.206Z,0
2017-10-08T00:04:27.343Z,0
2017-10-08T00:05:28.034Z,0
2017-10-08T00:06:27.564Z,0
2017-10-08T00:07:50.933Z,0
2017-10-08T00:08:50.901Z,0
2017-10-08T00:09:51.151Z,0
2017-10-08T00:10:50.579Z,0
2017-10-08T00:12:13.569Z,0
2017-10-08T00:13:14.200Z,0
2017-10-08T00:14:36.374Z,0
2017-10-08T00:16:21.553Z,0
2017-10-08T00:17:22.298Z,0
2017-10-08T00:19:06.614Z,0
2017-10-08T00:20:07.251Z,0
2017-10-08T00:21:29.525Z,0
2017-10-08T00:22:30.158Z,0
2017-10-08T00:23:52.333Z,0
2017-10-08T00:25:37.329Z,0
2017-10-08T00:27:21.964Z,0
2017-10-08T00:28:52.880Z,0
2017-10-08T00:30:37.656Z,0
2017-10-08T00:31:38.086Z,0
2017-10-08T00:32:38.399Z,0
2017-10-08T00:33:38.060Z,0
2017-10-08T00:34:39.137Z,0
2017-10-08T00:35:38.450Z,0
2017-10-08T00:36:59.894Z,0
2017-10-08T00:38:22.843Z,0
2017-10-08T00:39:45.519Z,0
2017-10-08T00:40:45.801Z,0
2017-10-08T00:41:46.138Z,0
2017-10-08T00:42:45.888Z,0
2017-10-08T00:43:46.155Z,0
2017-10-08T00:44:46.626Z,0
2017-10-08T00:45:46.269Z,0
2017-10-08T00:46:45.523Z,0
2017-10-08T00:47:45.956Z,0
2017-10-08T00:48:46.424Z,0
2017-10-08T00:49:45.622Z,0
2017-10-08T00:50:46.454Z,0
2017-10-08T00:52:07.717Z,0
2017-10-08T00:53:08.012Z,0
2017-10-08T00:54:08.141Z,0
2017-10-08T00:55:53.114Z,0
2017-10-08T00:57:15.770Z,0
2017-10-08T00:58:15.976Z,0
2017-10-08T00:59:39.339Z,0
2017-10-08T01:00:39.749Z,0
2017-10-08T01:01:40.607Z,0
2017-10-08T01:03:24.560Z,0
2017-10-08T01:04:25.048Z,0
2017-10-08T01:05:24.403Z,0
2017-10-08T01:06:24.963Z,0
2017-10-08T01:07:24.638Z,0
2017-10-08T01:08:24.920Z,0
2017-10-08T01:11:16.454Z,0
2017-10-08T01:12:17.274Z,0
2017-10-08T01:13:16.859Z,0
2017-10-08T01:14:17.586Z,0
2017-10-08T01:15:17.183Z,0
2017-10-08T01:16:16.595Z,0
2017-10-08T01:17:17.163Z,0
2017-10-08T01:18:18.398Z,0
2017-10-08T01:19:39.596Z,0
2017-10-08T01:20:40.118Z,0
2017-10-08T01:22:01.871Z,0
2017-10-08T01:24:09.052Z,0
2017-10-08T01:25:09.101Z,0
2017-10-08T01:26:10.219Z,0
2017-10-08T01:27:09.836Z,0
2017-10-08T01:28:09.355Z,0
2017-10-08T01:29:10.099Z,0
2017-10-08T01:30:09.235Z,0
2017-10-08T01:31:32.351Z,0
2017-10-08T01:33:39.911Z,0
2017-10-08T01:34:40.932Z,0
2017-10-08T01:36:02.725Z,0
2017-10-08T01:37:03.094Z,0
2017-10-08T01:38:26.304Z,0
2017-10-08T01:39:51.304Z,0
2017-10-08T01:42:20.186Z,0
2017-10-08T01:43:43.105Z,0
2017-10-08T01:44:43.343Z,0
2017-10-08T01:45:43.109Z,0
2017-10-08T01:46:43.398Z,0
2017-10-08T01:48:05.934Z,0
2017-10-08T01:49:51.247Z,0
2017-10-08T01:50:51.875Z,0
2017-10-08T01:52:36.664Z,0
2017-10-08T01:53:37.455Z,0
2017-10-08T01:54:37.328Z,0
2017-10-08T01:56:00.558Z,0
2017-10-08T01:57:22.127Z,0
2017-10-08T01:58:44.912Z,0
2017-10-08T01:59:45.242Z,0
2017-10-08T02:01:07.998Z,0
2017-10-08T02:02:07.823Z,0
2017-10-08T02:03:08.096Z,0
2017-10-08T02:04:07.978Z,0
2017-10-08T02:05:31.726Z,0
2017-10-08T02:06:32.325Z,0
2017-10-08T02:07:32.210Z,0
2017-10-08T02:08:31.828Z,0
2017-10-08T02:09:31.950Z,0
2017-10-08T02:11:39.004Z,0
2017-10-08T02:13:00.689Z,0
2017-10-08T02:14:23.919Z,0
2017-10-08T02:15:24.309Z,0
2017-10-08T02:16:47.242Z,0
2017-10-08T02:17:47.751Z,0
2017-10-08T02:18:47.240Z,0
2017-10-08T02:20:32.025Z,0
2017-10-08T02:22:19.501Z,0
2017-10-08T02:24:26.029Z,0
2017-10-08T02:25:26.608Z,0
2017-10-08T02:27:11.541Z,0
2017-10-08T02:28:12.079Z,0
2017-10-08T02:29:11.257Z,0
2017-10-08T02:30:55.774Z,0
2017-10-08T02:31:56.309Z,0
2017-10-08T02:32:57.125Z,0
2017-10-08T02:34:18.557Z,0
2017-10-08T02:37:32.905Z,0
2017-10-08T02:38:34.861Z,0
2017-10-08T02:39:32.728Z,0
2017-10-08T02:40:33.389Z,0
2017-10-08T02:41:56.205Z,0
2017-10-08T02:42:56.891Z,0
2017-10-08T02:45:26.290Z,0
2017-10-08T02:46:26.994Z,0
2017-10-08T02:47:26.128Z,0
2017-10-08T02:48:26.798Z,0
2017-10-08T02:49:28.248Z,0
2017-10-08T02:51:10.526Z,0
2017-10-08T02:52:11.335Z,0
2017-10-08T02:53:56.404Z,0
2017-10-08T02:56:04.077Z,0
2017-10-08T02:57:04.408Z,0
2017-10-08T02:59:11.523Z,0
2017-10-08T03:00:12.576Z,0
2017-10-08T03:01:12.388Z,0
2017-10-08T03:02:33.887Z,0
2017-10-08T03:03:56.595Z,0
2017-10-08T03:05:19.998Z,0
2017-10-08T03:06:43.867Z,0
2017-10-08T03:08:06.675Z,0
2017-10-08T03:09:51.249Z,0
2017-10-08T03:11:16.145Z,0
2017-10-08T03:13:23.626Z,0
2017-10-08T03:14:46.078Z,0
2017-10-08T03:15:46.152Z,0
2017-10-08T03:16:46.854Z,0
2017-10-08T03:17:46.757Z,0
2017-10-08T03:19:09.332Z,0
2017-10-08T03:20:31.901Z,0
2017-10-08T03:21:32.199Z,0
2017-10-08T03:24:47.615Z,0
2017-10-08T03:26:10.206Z,0
2017-10-08T03:27:10.570Z,0
2017-10-08T03:29:18.566Z,0
2017-10-08T03:31:48.350Z,0
2017-10-08T03:33:33.413Z,0
2017-10-08T03:34:57.220Z,0
2017-10-08T03:36:19.986Z,0
2017-10-08T03:37:20.653Z,0
2017-10-08T03:38:20.547Z,0
2017-10-08T03:39:42.090Z,0
2017-10-08T03:40:42.376Z,0
2017-10-08T03:41:42.508Z,0
2017-10-08T03:43:05.655Z,0
2017-10-08T03:44:06.804Z,0
2017-10-08T03:46:34.064Z,0
2017-10-08T03:47:35.095Z,0
2017-10-08T03:48:56.622Z,0
2017-10-08T03:49:58.645Z,0
2017-10-08T03:51:19.760Z,0
2017-10-08T03:52:20.544Z,0
2017-10-08T03:53:20.011Z,0
2017-10-08T03:55:05.260Z,0
2017-10-08T03:56:50.202Z,0
2017-10-08T03:58:12.357Z,0
2017-10-08T03:59:13.429Z,0
2017-10-08T04:00:13.290Z,0
2017-10-08T04:01:12.922Z,0
2017-10-08T04:04:04.401Z,0
2017-10-08T04:06:11.320Z,0
2017-10-08T04:07:11.864Z,0
2017-10-08T04:08:11.436Z,0
2017-10-08T04:09:12.339Z,0
2017-10-08T04:10:11.773Z,0
2017-10-08T04:11:12.321Z,0
2017-10-08T04:12:34.662Z,0
2017-10-08T04:13:57.536Z,0
2017-10-08T04:15:20.413Z,0
2017-10-08T04:16:20.565Z,0
2017-10-08T04:17:43.001Z,0
2017-10-08T04:19:05.416Z,0
2017-10-08T04:20:05.705Z,0
2017-10-08T04:21:28.194Z,0
2017-10-08T04:23:13.050Z,0
2017-10-08T04:24:35.995Z,0
2017-10-08T04:25:58.985Z,0
2017-10-08T04:26:59.965Z,0
2017-10-08T04:27:59.168Z,0
2017-10-08T04:30:06.079Z,0
2017-10-08T04:31:51.182Z,0
2017-10-08T04:33:13.937Z,0
2017-10-08T04:34:14.406Z,0
2017-10-08T04:35:14.676Z,0
2017-10-08T04:36:14.410Z,0
2017-10-08T04:37:15.262Z,0
2017-10-08T04:38:15.109Z,0
2017-10-08T04:39:14.304Z,0
2017-10-08T04:40:15.009Z,0
2017-10-08T04:41:58.725Z,0
2017-10-08T04:42:58.956Z,0
2017-10-08T04:43:59.011Z,0
2017-10-08T04:44:58.785Z,0
2017-10-08T04:47:06.405Z,0
2017-10-08T04:48:06.980Z,0
2017-10-08T04:50:36.879Z,0
2017-10-08T04:52:22.519Z,0
2017-10-08T04:53:22.995Z,0
2017-10-08T04:54:23.559Z,0
2017-10-08T04:55:44.742Z,0
2017-10-08T04:57:30.669Z,0
2017-10-08T04:58:31.298Z,0
2017-10-08T04:59:53.563Z,0
2017-10-08T05:02:22.599Z,0
2017-10-08T05:03:22.776Z,0
2017-10-08T05:04:23.311Z,0
2017-10-08T05:05:25.293Z,0
2017-10-08T05:06:23.953Z,0
2017-10-08T05:08:08.222Z,0
2017-10-08T05:09:08.451Z,0
2017-10-08T05:11:39.538Z,0
2017-10-08T05:13:02.582Z,0
2017-10-08T05:15:11.547Z,0
2017-10-08T05:16:36.348Z,0
2017-10-08T05:17:36.560Z,0
2017-10-08T05:19:00.205Z,0
2017-10-08T05:21:08.047Z,0
2017-10-08T05:24:00.129Z,0
2017-10-08T05:25:00.751Z,0
2017-10-08T05:26:00.524Z,0
2017-10-08T05:27:45.431Z,0
2017-10-08T05:28:46.174Z,0
2017-10-08T05:29:45.090Z,0
2017-10-08T05:30:45.318Z,0
2017-10-08T05:31:45.955Z,0
2017-10-08T05:33:30.107Z,0
2017-10-08T05:34:30.897Z,0
2017-10-08T05:35:29.907Z,0
2017-10-08T05:36:30.039Z,0
2017-10-08T05:37:52.942Z,0
2017-10-08T05:38:53.222Z,1
2017-10-08T05:39:52.624Z,1
2017-10-08T05:40:52.897Z,1
2017-10-08T05:41:53.288Z,1
2017-10-08T05:43:38.031Z,1
2017-10-08T05:45:00.631Z,1
2017-10-08T05:46:01.083Z,1
2017-10-08T05:47:01.829Z,1
2017-10-08T05:48:01.635Z,1
2017-10-08T05:49:00.973Z,2
2017-10-08T05:50:01.627Z,2
2017-10-08T05:51:01.466Z,2
2017-10-08T05:52:00.780Z,2
2017-10-08T05:53:47.770Z,2
2017-10-08T05:55:10.642Z,2
2017-10-08T05:56:11.301Z,1
2017-10-08T05:57:56.205Z,2
2017-10-08T05:58:56.730Z,3
2017-10-08T06:00:41.750Z,4
2017-10-08T06:01:41.869Z,3
2017-10-08T06:03:04.520Z,4
2017-10-08T06:04:49.577Z,5
2017-10-08T06:05:49.827Z,5
2017-10-08T06:07:12.580Z,6
2017-10-08T06:08:12.898Z,4
2017-10-08T06:09:59.409Z,5
2017-10-08T06:11:44.151Z,5
2017-10-08T06:12:44.796Z,8
2017-10-08T06:14:06.793Z,6
2017-10-08T06:16:36.154Z,9
2017-10-08T06:17:58.534Z,10
2017-10-08T06:18:58.544Z,11
2017-10-08T06:20:43.457Z,11
2017-10-08T06:22:06.451Z,13
2017-10-08T06:23:06.675Z,13
2017-10-08T06:24:07.412Z,13
2017-10-08T06:25:06.837Z,13
2017-10-08T06:26:30.460Z,14
2017-10-08T06:27:31.148Z,14
2017-10-08T06:28:52.372Z,15
2017-10-08T06:29:52.707Z,16
2017-10-08T06:30:52.921Z,17
2017-10-08T06:32:16.086Z,20
2017-10-08T06:33:17.133Z,23
2017-10-08T06:34:16.530Z,26
2017-10-08T06:35:39.110Z,31
2017-10-08T06:36:39.263Z,33
2017-10-08T06:38:01.653Z,36
2017-10-08T06:39:25.221Z,39
2017-10-08T06:41:08.976Z,42
2017-10-08T06:42:55.083Z,43
2017-10-08T06:44:39.350Z,41
2017-10-08T06:45:40.035Z,41
2017-10-08T06:46:40.353Z,43
2017-10-08T06:47:39.787Z,45
2017-10-08T06:49:26.233Z,47
2017-10-08T06:50:48.913Z,45
2017-10-08T06:52:11.504Z,47
2017-10-08T06:53:33.878Z,49
2017-10-08T06:54:57.185Z,48
2017-10-08T06:56:19.724Z,48
2017-10-08T06:57:20.387Z,47
2017-10-08T06:58:42.014Z,43
2017-10-08T06:59:44.673Z,40
2017-10-08T07:01:04.066Z,40
2017-10-08T07:02:48.211Z,46
2017-10-08T07:04:11.556Z,49
2017-10-08T07:05:35.522Z,47
2017-10-08T07:06:36.275Z,43
2017-10-08T07:07:35.620Z,41
2017-10-08T07:11:33.860Z,45
2017-10-08T07:12:34.209Z,46
2017-10-08T07:14:17.970Z,43
2017-10-08T07:15:18.432Z,40
2017-10-08T07:16:19.166Z,38
2017-10-08T07:17:18.520Z,37
2017-10-08T07:19:03.338Z,40
2017-10-08T07:20:48.445Z,50
2017-10-08T07:21:48.960Z,53
2017-10-08T07:22:48.405Z,53
2017-10-08T07:23:49.366Z,53
2017-10-08T07:24:48.736Z,51
2017-10-08T07:25:48.151Z,48
2017-10-08T07:26:48.844Z,46
2017-10-08T07:27:48.285Z,46
2017-10-08T07:29:10.666Z,50
2017-10-08T07:30:12.731Z,54
2017-10-08T07:31:11.131Z,63
2017-10-08T07:32:11.856Z,80
2017-10-08T07:33:11.437Z,94
2017-10-08T07:34:11.056Z,97
2017-10-08T07:35:11.294Z,89
2017-10-08T07:36:10.649Z,84
2017-10-08T07:37:34.218Z,72
2017-10-08T07:40:04.828Z,65
2017-10-08T07:41:50.381Z,66
2017-10-08T07:43:13.390Z,64
2017-10-08T07:44:13.756Z,66
2017-10-08T07:45:37.200Z,70
2017-10-08T07:46:37.773Z,71
2017-10-08T07:47:59.653Z,85
2017-10-08T07:49:00.089Z,88
2017-10-08T07:49:59.638Z,96
2017-10-08T07:51:00.359Z,97
2017-10-08T07:51:59.806Z,94
2017-10-08T07:53:24.676Z,99
2017-10-08T07:54:25.142Z,98
2017-10-08T07:55:24.662Z,99
2017-10-08T07:56:25.365Z,107
2017-10-08T07:57:24.786Z,114
2017-10-08T07:58:25.270Z,116
2017-10-08T07:59:24.831Z,139
2017-10-08T08:01:31.692Z,116
2017-10-08T08:02:33.050Z,115
2017-10-08T08:03:32.775Z,106
2017-10-08T08:04:32.289Z,101
2017-10-08T08:05:31.851Z,106
2017-10-08T08:06:32.396Z,104
2017-10-08T08:07:54.033Z,99
2017-10-08T08:08:54.465Z,91
2017-10-08T08:10:17.215Z,94
2017-10-08T08:11:17.804Z,101
2017-10-08T08:12:17.600Z,100
2017-10-08T08:13:17.361Z,100
2017-10-08T08:14:18.501Z,102
2017-10-08T08:15:40.134Z,102
2017-10-08T08:18:10.194Z,118
2017-10-08T08:19:11.321Z,116
2017-10-08T08:20:11.130Z,117
2017-10-08T08:21:11.098Z,118
2017-10-08T08:22:33.427Z,117
2017-10-08T08:23:33.984Z,111
2017-10-08T08:24:33.740Z,111
2017-10-08T08:25:33.984Z,108
2017-10-08T08:26:56.860Z,106
2017-10-08T08:27:57.549Z,107
2017-10-08T08:28:57.203Z,110
2017-10-08T08:29:58.840Z,114
2017-10-08T08:30:58.002Z,119
2017-10-08T08:31:57.071Z,126
2017-10-08T08:33:19.363Z,125
2017-10-08T08:34:20.285Z,129
2017-10-08T08:36:04.645Z,136
2017-10-08T08:37:26.835Z,133
2017-10-08T08:38:52.794Z,122
2017-10-08T08:39:50.776Z,118
2017-10-08T08:42:19.671Z,121
2017-10-08T08:43:19.592Z,130
2017-10-08T08:44:20.452Z,139
2017-10-08T08:45:20.831Z,148
2017-10-08T08:46:19.728Z,153
2017-10-08T08:47:21.099Z,151
2017-10-08T08:49:08.502Z,151
2017-10-08T08:52:26.715Z,138
2017-10-08T08:53:26.607Z,132
2017-10-08T08:54:34.914Z,112
2017-10-08T08:55:36.551Z,93
2017-10-08T08:56:28.443Z,70
2017-10-08T08:57:25.989Z,59
2017-10-08T08:58:25.718Z,56
2017-10-08T08:59:26.166Z,83
2017-10-08T09:01:14.883Z,204
2017-10-08T09:02:35.586Z,204
2017-10-08T09:03:58.686Z,204
2017-10-08T09:04:57.469Z,204
2017-10-08T09:05:57.112Z,195
2017-10-08T09:06:58.348Z,195
2017-10-08T09:09:28.734Z,200
2017-10-08T09:10:50.952Z,199
2017-10-08T09:13:22.804Z,205
2017-10-08T09:14:21.675Z,212
2017-10-08T09:15:21.775Z,195
2017-10-08T09:17:52.158Z,196
2017-10-08T09:20:44.309Z,285
2017-10-08T09:21:45.210Z,238
2017-10-08T09:22:44.917Z,216
2017-10-08T09:25:37.657Z,197
2017-10-08T09:26:40.353Z,201
2017-10-08T09:28:45.798Z,187
2017-10-08T09:30:09.988Z,166
2017-10-08T09:31:31.985Z,127
2017-10-08T09:32:32.464Z,116
2017-10-08T09:33:32.694Z,112
2017-10-08T09:35:41.210Z,82
2017-10-08T09:36:42.031Z,398
2017-10-08T09:37:41.836Z,393
2017-10-08T09:39:26.152Z,419
2017-10-08T09:40:28.722Z,463
2017-10-08T09:41:26.585Z,474
2017-10-08T09:42:26.054Z,333
2017-10-08T09:43:48.506Z,310
2017-10-08T09:44:49.403Z,439
2017-10-08T09:45:48.924Z,457
2017-10-08T09:47:12.634Z,319
2017-10-08T09:48:35.583Z,372
2017-10-08T09:49:58.460Z,288
2017-10-08T09:51:00.742Z,258
2017-10-08T09:52:00.189Z,208
2017-10-08T09:53:33.320Z,185
2017-10-08T09:54:33.000Z,203
2017-10-08T09:55:33.462Z,206
2017-10-08T09:56:33.966Z,232
2017-10-08T09:57:33.975Z,567
2017-10-08T09:58:55.987Z,328
2017-10-08T10:00:43.946Z,192
2017-10-08T10:01:44.379Z,207
2017-10-08T10:02:43.355Z,214
2017-10-08T10:04:06.167Z,218
2017-10-08T10:05:07.069Z,485
2017-10-08T10:07:35.033Z,181
2017-10-08T10:10:28.603Z,164
2017-10-08T10:11:51.921Z,171
2017-10-08T10:14:00.471Z,188
2017-10-08T10:15:01.189Z,546
2017-10-08T10:16:01.187Z,148
2017-10-08T10:17:48.150Z,137
2017-10-08T10:18:48.798Z,150
2017-10-08T10:20:13.778Z,194
2017-10-08T10:21:12.678Z,260
2017-10-08T10:22:57.918Z,648
2017-10-08T10:24:21.059Z,335
2017-10-08T10:26:29.418Z,288
2017-10-08T10:27:28.680Z,439
2017-10-08T10:28:28.614Z,293
2017-10-08T10:29:28.247Z,272
2017-10-08T10:32:20.287Z,264
2017-10-08T10:33:21.596Z,336
2017-10-08T10:34:26.439Z,209
2017-10-08T10:35:20.365Z,182
2017-10-08T10:36:20.238Z,167
2017-10-08T10:37:21.237Z,161
2017-10-08T10:38:20.285Z,172
2017-10-08T10:39:21.677Z,169
2017-10-08T10:41:05.199Z,184
2017-10-08T10:42:05.903Z,187
2017-10-08T10:43:05.715Z,194
2017-10-08T10:44:50.917Z,180
2017-10-08T10:45:51.542Z,178
2017-10-08T10:47:13.840Z,163
2017-10-08T10:48:14.782Z,164
2017-10-08T10:49:15.122Z,165
2017-10-08T10:50:15.913Z,159
2017-10-08T10:51:14.656Z,162
2017-10-08T10:53:43.291Z,189
2017-10-08T10:55:52.541Z,210
2017-10-08T10:56:53.383Z,210
2017-10-08T10:57:53.291Z,216
2017-10-08T10:58:52.953Z,225
2017-10-08T11:00:15.373Z,218
2017-10-08T11:01:15.933Z,216
2017-10-08T11:02:15.855Z,227
2017-10-08T11:03:38.327Z,215
2017-10-08T11:04:38.963Z,194
2017-10-08T11:06:45.737Z,188
2017-10-08T11:07:46.508Z,193
2017-10-08T11:08:46.537Z,250
2017-10-08T11:10:31.080Z,217
2017-10-08T11:11:33.101Z,145
2017-10-08T11:15:11.316Z,134
2017-10-08T11:16:10.297Z,294
2017-10-08T11:18:17.840Z,168
2017-10-08T11:19:18.190Z,452
2017-10-08T11:20:40.387Z,371
2017-10-08T11:22:02.709Z,288
2017-10-08T11:23:25.349Z,241
2017-10-08T11:25:32.377Z,260
2017-10-08T11:26:55.380Z,264
2017-10-08T11:28:18.050Z,381
2017-10-08T11:29:18.041Z,251
2017-10-08T11:30:17.857Z,552
2017-10-08T11:31:17.633Z,313
2017-10-08T11:32:19.323Z,332
2017-10-08T11:33:18.563Z,295
2017-10-08T11:34:20.224Z,321
2017-10-08T11:35:18.219Z,290
2017-10-08T11:36:18.030Z,334
2017-10-08T11:37:18.136Z,211
2017-10-08T11:38:19.091Z,193
2017-10-08T11:39:18.004Z,205
2017-10-08T11:40:18.113Z,327
2017-10-08T11:41:18.344Z,374
2017-10-08T11:42:18.497Z,278
2017-10-08T11:43:18.794Z,421
2017-10-08T11:44:18.525Z,585
2017-10-08T11:45:18.654Z,485
2017-10-08T11:46:18.530Z,249
2017-10-08T11:47:18.602Z,152
2017-10-08T11:48:18.416Z,137
2017-10-08T11:49:19.870Z,123
2017-10-08T11:50:17.996Z,113
2017-10-08T11:51:18.328Z,108
2017-10-08T11:52:18.359Z,103
2017-10-08T11:53:19.387Z,102
2017-10-08T11:54:18.495Z,104
2017-10-08T11:55:19.529Z,119
2017-10-08T11:56:19.705Z,138
2017-10-08T11:57:17.933Z,153
2017-10-08T11:58:18.562Z,160
2017-10-08T11:59:18.430Z,231
2017-10-08T12:00:18.812Z,181
2017-10-08T12:01:18.144Z,423
2017-10-08T12:02:18.043Z,275
2017-10-08T12:03:18.137Z,231
2017-10-08T12:04:17.955Z,214
2017-10-08T12:05:17.897Z,288
2017-10-08T12:06:18.467Z,318
2017-10-08T12:07:18.469Z,392
2017-10-08T12:08:18.274Z,284
2017-10-08T12:09:18.141Z,498
2017-10-08T12:10:18.855Z,519
2017-10-08T12:11:18.527Z,507
2017-10-08T12:12:18.482Z,493
2017-10-08T12:13:18.659Z,432
2017-10-08T12:14:18.204Z,187
2017-10-08T12:15:19.096Z,144
2017-10-08T12:16:19.209Z,265
2017-10-08T12:17:19.295Z,497
2017-10-08T12:18:19.502Z,476
2017-10-08T12:19:19.871Z,499
2017-10-08T12:20:19.438Z,555
2017-10-08T12:21:20.048Z,491
2017-10-08T12:22:18.973Z,575
2017-10-08T12:23:19.549Z,591
2017-10-08T12:24:19.022Z,616
2017-10-08T12:25:18.176Z,623
2017-10-08T12:26:19.014Z,323
2017-10-08T12:27:18.567Z,367
2017-10-08T12:28:18.693Z,242
2017-10-08T12:29:18.271Z,193
2017-10-08T12:30:18.601Z,149
2017-10-08T12:31:17.860Z,131
2017-10-08T12:32:18.401Z,112
2017-10-08T12:33:18.233Z,95
2017-10-08T12:34:18.502Z,85
2017-10-08T12:35:19.072Z,73
2017-10-08T12:36:18.377Z,64
2017-10-08T12:37:20.021Z,68
2017-10-08T12:38:17.970Z,80
2017-10-08T12:39:18.176Z,94
2017-10-08T12:40:19.571Z,107
2017-10-08T12:41:18.714Z,115
2017-10-08T12:42:19.090Z,128
2017-10-08T12:43:18.892Z,142
2017-10-08T12:44:18.932Z,135
2017-10-08T12:45:18.386Z,201
2017-10-08T12:46:18.648Z,133
2017-10-08T12:47:18.790Z,127
2017-10-08T12:48:17.933Z,110
2017-10-08T12:49:18.120Z,100
2017-10-08T12:50:17.970Z,88
2017-10-08T12:51:18.841Z,79
2017-10-08T12:52:17.959Z,66
2017-10-08T12:53:18.187Z,55
2017-10-08T12:54:18.869Z,45
2017-10-08T12:55:18.277Z,38
2017-10-08T12:56:18.252Z,34
2017-10-08T12:57:19.221Z,32
2017-10-08T12:58:18.667Z,30
2017-10-08T12:59:18.786Z,29
2017-10-08T13:00:18.675Z,30
2017-10-08T13:01:19.133Z,35
2017-10-08T13:02:18.011Z,45
2017-10-08T13:03:18.779Z,59
2017-10-08T13:04:18.697Z,76
2017-10-08T13:05:19.258Z,81
2017-10-08T13:06:18.119Z,89
2017-10-08T13:07:17.861Z,102
2017-10-08T13:08:18.322Z,113
2017-10-08T13:09:18.703Z,133
2017-10-08T13:10:18.726Z,172
2017-10-08T13:11:18.554Z,294
2017-10-08T13:12:18.297Z,178
2017-10-08T13:13:18.896Z,409
2017-10-08T13:14:17.917Z,235
2017-10-08T13:15:18.007Z,304
2017-10-08T13:16:18.117Z,276
2017-10-08T13:17:18.111Z,200
2017-10-08T13:18:18.428Z,469
2017-10-08T13:19:18.321Z,212
2017-10-08T13:20:18.504Z,181
2017-10-08T13:21:18.456Z,227
2017-10-08T13:22:18.207Z,140
2017-10-08T13:23:18.484Z,191
2017-10-08T13:24:18.276Z,427
2017-10-08T13:25:18.207Z,212
2017-10-08T13:26:18.156Z,304
2017-10-08T13:27:18.205Z,304
2017-10-08T13:28:18.510Z,351
2017-10-08T13:29:19.800Z,345
2017-10-08T13:30:18.035Z,330
2017-10-08T13:31:18.134Z,360
2017-10-08T13:32:18.160Z,366
2017-10-08T13:33:19.982Z,357
2017-10-08T13:34:18.325Z,354
2017-10-08T13:35:19.049Z,358
2017-10-08T13:36:19.029Z,359
2017-10-08T13:37:18.212Z,353
2017-10-08T13:38:18.642Z,348
2017-10-08T13:39:19.475Z,342
2017-10-08T13:40:18.558Z,348
2017-10-08T13:41:18.708Z,377
2017-10-08T13:42:19.666Z,384
2017-10-08T13:43:18.783Z,352
2017-10-08T13:44:17.616Z,336
2017-10-08T13:45:18.055Z,315
2017-10-08T13:46:17.880Z,333
2017-10-08T13:47:18.005Z,284
2017-10-08T13:48:18.208Z,320
2017-10-08T13:49:18.686Z,310
2017-10-08T13:50:18.402Z,279
2017-10-08T13:51:18.667Z,345
2017-10-08T13:52:18.185Z,312
2017-10-08T13:53:19.203Z,192
2017-10-08T13:54:18.723Z,191
2017-10-08T13:55:18.530Z,158
2017-10-08T13:56:17.926Z,125
2017-10-08T13:57:17.827Z,118
2017-10-08T13:58:17.864Z,130
2017-10-08T13:59:18.750Z,112
2017-10-08T14:00:18.515Z,95
2017-10-08T14:01:18.179Z,88
2017-10-08T14:02:18.061Z,81
2017-10-08T14:03:19.999Z,78
2017-10-08T14:04:18.482Z,74
2017-10-08T14:05:18.613Z,65
2017-10-08T14:06:19.040Z,58
2017-10-08T14:07:18.036Z,51
2017-10-08T14:08:18.024Z,46
2017-10-08T14:09:18.399Z,42
2017-10-08T14:10:18.724Z,42
2017-10-08T14:11:18.558Z,39
2017-10-08T14:12:19.176Z,38
2017-10-08T14:13:18.274Z,39
2017-10-08T14:14:19.229Z,44
2017-10-08T14:15:19.098Z,48
2017-10-08T14:16:18.022Z,51
2017-10-08T14:17:18.277Z,57
2017-10-08T14:18:18.995Z,62
2017-10-08T14:19:19.031Z,71
2017-10-08T14:20:19.661Z,81
2017-10-08T14:21:19.821Z,89
2017-10-08T14:22:18.272Z,95
2017-10-08T14:23:18.835Z,103
2017-10-08T14:24:19.220Z,118
2017-10-08T14:25:18.427Z,262
2017-10-08T14:26:18.405Z,194
2017-10-08T14:27:18.549Z,160
2017-10-08T14:28:19.175Z,146
2017-10-08T14:29:18.260Z,235
2017-10-08T14:30:18.280Z,106
2017-10-08T14:31:18.989Z,93
2017-10-08T14:32:18.112Z,216
2017-10-08T14:33:18.106Z,206
2017-10-08T14:34:18.270Z,146
2017-10-08T14:35:18.534Z,201
2017-10-08T14:36:18.163Z,76
2017-10-08T14:37:18.814Z,213
2017-10-08T14:38:18.351Z,213
2017-10-08T14:39:19.305Z,204
2017-10-08T14:40:20.483Z,196
2017-10-08T14:41:18.568Z,172
2017-10-08T14:42:17.797Z,176
2017-10-08T14:43:17.804Z,194
2017-10-08T14:44:19.033Z,172
2017-10-08T14:45:18.417Z,129
2017-10-08T14:46:18.794Z,112
2017-10-08T14:47:18.517Z,67
2017-10-08T14:48:18.400Z,185
2017-10-08T14:49:17.834Z,186
2017-10-08T14:50:18.154Z,187
2017-10-08T14:51:18.046Z,174
2017-10-08T14:52:18.556Z,182
2017-10-08T14:53:18.423Z,154
2017-10-08T14:54:19.095Z,141
2017-10-08T14:55:19.889Z,146
2017-10-08T14:56:18.382Z,136
2017-10-08T14:57:18.477Z,122
2017-10-08T14:58:19.031Z,116
2017-10-08T14:59:18.680Z,96
2017-10-08T15:00:18.242Z,100
2017-10-08T15:01:18.179Z,131
2017-10-08T15:02:18.614Z,123
2017-10-08T15:03:18.299Z,145
2017-10-08T15:04:18.431Z,104
2017-10-08T15:05:19.762Z,119
2017-10-08T15:06:18.396Z,117
2017-10-08T15:07:18.228Z,122
2017-10-08T15:08:18.613Z,77
2017-10-08T15:09:17.740Z,94
2017-10-08T15:10:18.636Z,94
2017-10-08T15:11:18.253Z,89
2017-10-08T15:12:18.699Z,78
2017-10-08T15:13:18.072Z,66
2017-10-08T15:14:17.961Z,62
2017-10-08T15:15:19.174Z,60
2017-10-08T15:16:18.141Z,57
2017-10-08T15:17:18.408Z,55
2017-10-08T15:18:18.518Z,53
2017-10-08T15:19:18.335Z,55
2017-10-08T15:20:18.618Z,55
2017-10-08T15:21:18.608Z,54
2017-10-08T15:22:19.472Z,51
2017-10-08T15:23:19.270Z,51
2017-10-08T15:24:18.340Z,49
2017-10-08T15:25:19.006Z,49
2017-10-08T15:26:18.121Z,49
2017-10-08T15:27:18.147Z,50
2017-10-08T15:28:18.099Z,49
2017-10-08T15:29:18.066Z,49
2017-10-08T15:30:18.520Z,48
2017-10-08T15:31:18.540Z,48
2017-10-08T15:32:18.285Z,47
2017-10-08T15:33:18.910Z,46
2017-10-08T15:34:18.753Z,45
2017-10-08T15:35:18.095Z,45
2017-10-08T15:36:18.460Z,45
2017-10-08T15:37:18.570Z,45
2017-10-08T15:38:18.547Z,44
2017-10-08T15:39:18.264Z,44
2017-10-08T15:40:18.754Z,44
2017-10-08T15:41:18.506Z,43
2017-10-08T15:42:18.906Z,44
2017-10-08T15:43:18.046Z,43
2017-10-08T15:44:17.852Z,43
2017-10-08T15:45:18.466Z,44
2017-10-08T15:46:18.337Z,41
2017-10-08T15:47:18.289Z,40
2017-10-08T15:48:18.198Z,39
2017-10-08T15:49:18.172Z,37
2017-10-08T15:50:18.564Z,36
2017-10-08T15:51:18.427Z,35
2017-10-08T15:52:19.602Z,35
2017-10-08T15:53:17.577Z,35
2017-10-08T15:54:17.719Z,35
2017-10-08T15:55:18.654Z,34
2017-10-08T15:56:18.151Z,33
2017-10-08T15:57:17.839Z,32
2017-10-08T15:58:17.817Z,31
2017-10-08T15:59:17.639Z,30
2017-10-08T16:00:17.722Z,30
2017-10-08T16:01:18.103Z,29
2017-10-08T16:02:17.577Z,28
2017-10-08T16:03:18.080Z,28
2017-10-08T16:04:18.430Z,28
2017-10-08T16:05:18.584Z,28
2017-10-08T16:06:17.528Z,28
2017-10-08T16:07:18.046Z,27
2017-10-08T16:08:17.800Z,26
2017-10-08T16:09:17.841Z,25
2017-10-08T16:10:18.304Z,24
2017-10-08T16:11:18.826Z,23
2017-10-08T16:12:18.951Z,23
2017-10-08T16:13:17.797Z,22
2017-10-08T16:14:18.214Z,21
2017-10-08T16:15:18.173Z,20
2017-10-08T16:16:18.832Z,19
2017-10-08T16:17:18.078Z,19
2017-10-08T16:18:18.508Z,17
2017-10-08T16:19:18.531Z,17
2017-10-08T16:20:18.330Z,16
2017-10-08T16:21:18.350Z,15
2017-10-08T16:22:20.050Z,14
2017-10-08T16:23:18.707Z,14
2017-10-08T16:24:17.734Z,13
2017-10-08T16:25:17.751Z,13
2017-10-08T16:26:18.431Z,14
2017-10-08T16:27:18.534Z,15
2017-10-08T16:28:18.547Z,14
2017-10-08T16:29:17.511Z,14
2017-10-08T16:30:18.564Z,13
2017-10-08T16:31:18.251Z,13
2017-10-08T16:32:18.208Z,12
2017-10-08T16:33:19.706Z,11
2017-10-08T16:34:17.803Z,11
2017-10-08T16:35:19.788Z,11
2017-10-08T16:36:19.071Z,10
2017-10-08T16:37:17.929Z,9
2017-10-08T16:38:18.186Z,9
2017-10-08T16:39:18.911Z,8
2017-10-08T16:40:17.631Z,8
2017-10-08T16:41:17.517Z,7
2017-10-08T16:42:17.773Z,7
2017-10-08T16:43:18.885Z,6
2017-10-08T16:44:18.022Z,5
2017-10-08T16:45:18.035Z,5
2017-10-08T16:46:17.949Z,4
2017-10-08T16:47:18.430Z,4
2017-10-08T16:48:18.594Z,3
2017-10-08T16:49:17.813Z,3
2017-10-08T16:50:17.757Z,3
2017-10-08T16:51:18.282Z,2
2017-10-08T16:52:18.203Z,2
2017-10-08T16:53:19.733Z,2
2017-10-08T16:54:18.215Z,2
2017-10-08T16:55:18.103Z,2
2017-10-08T16:56:17.729Z,2
2017-10-08T16:57:17.464Z,1
2017-10-08T16:58:19.904Z,1
2017-10-08T16:59:19.255Z,1
2017-10-08T17:00:18.425Z,1